sensor_id;sensor_type;location;lat;lon;timestamp;pressure;altitude;pressure_sealevel;temperature;humidity
17505;BME280;8870;50.950;11.762;2024-03-23T00:55:23;97544.44;;;8.53;100.00
17505;BME280;8870;50.950;11.762;2024-03-23T01:00:52;97544.97;;;8.32;100.00
17505;BME280;8870;50.950;11.762;2024-03-23T01:06:06;97522.31;;;8.18;100.00
17505;BME280;8870;50.950;11.762;2024-03-23T01:11:36;97522.66;;;8.07;100.00
17505;BME280;8870;50.950;11.762;2024-03-23T01:16:51;97520.97;;;7.97;100.00
17505;BME280;8870;50.950;11.762;2024-03-23T01:22:19;97512.25;;;7.95;100.00
17505;BME280;8870;50.950;11.762;2024-03-23T01:27:35;97513.94;;;7.96;100.00
17505;BME280;8870;50.950;11.762;2024-03-23T01:33:04;97514.94;;;7.95;100.00
17505;BME280;8870;50.950;11.762;2024-03-23T01:38:19;97516.47;;;7.98;100.00
17505;BME280;8870;50.950;11.762;2024-03-23T01:43:49;97499.53;;;7.89;100.00
17505;BME280;8870;50.950;11.762;2024-03-23T01:49:05;97480.91;;;7.79;100.00
17505;BME280;8870;50.950;11.762;2024-03-23T01:54:33;97484.59;;;7.70;100.00
17505;BME280;8870;50.950;11.762;2024-03-23T02:00:06;97481.41;;;7.75;100.00
17505;BME280;8870;50.950;11.762;2024-03-23T02:05:21;97494.81;;;7.83;100.00
17505;BME280;8870;50.950;11.762;2024-03-23T02:10:50;97480.75;;;7.89;100.00
17505;BME280;8870;50.950;11.762;2024-03-23T02:16:07;97484.13;;;7.91;100.00
17505;BME280;8870;50.950;11.762;2024-03-23T02:21:36;97459.31;;;7.89;100.00
17505;BME280;8870;50.950;11.762;2024-03-23T02:26:52;97486.13;;;7.81;100.00
17505;BME280;8870;50.950;11.762;2024-03-23T02:32:21;97453.41;;;7.77;100.00
17505;BME280;8870;50.950;11.762;2024-03-23T02:37:36;97450.91;;;7.76;100.00
17505;BME280;8870;50.950;11.762;2024-03-23T02:43:06;97431.31;;;7.75;100.00
17505;BME280;8870;50.950;11.762;2024-03-23T02:48:21;97414.91;;;7.70;100.00
17505;BME280;8870;50.950;11.762;2024-03-23T02:53:49;97404.00;;;7.63;100.00
17505;BME280;8870;50.950;11.762;2024-03-23T02:59:19;97407.00;;;7.60;100.00
17505;BME280;8870;50.950;11.762;2024-03-23T03:04:34;97414.91;;;7.62;100.00
17505;BME280;8870;50.950;11.762;2024-03-23T03:10:03;97409.19;;;7.65;100.00
17505;BME280;8870;50.950;11.762;2024-03-23T03:15:20;97400.13;;;7.66;100.00
17505;BME280;8870;50.950;11.762;2024-03-23T03:20:49;97401.00;;;7.66;100.00
17505;BME280;8870;50.950;11.762;2024-03-23T03:26:03;97390.41;;;7.65;100.00
17505;BME280;8870;50.950;11.762;2024-03-23T03:31:34;97346.53;;;7.66;100.00
17505;BME280;8870;50.950;11.762;2024-03-23T03:36:49;97352.91;;;7.65;100.00
17505;BME280;8870;50.950;11.762;2024-03-23T03:42:17;97363.13;;;7.61;100.00
17505;BME280;8870;50.950;11.762;2024-03-23T03:47:34;97334.31;;;7.63;100.00
17505;BME280;8870;50.950;11.762;2024-03-23T03:53:03;97334.31;;;7.63;100.00
17505;BME280;8870;50.950;11.762;2024-03-23T03:58:18;97323.09;;;7.60;100.00
17505;BME280;8870;50.950;11.762;2024-03-23T04:03:48;97314.19;;;7.59;100.00
17505;BME280;8870;50.950;11.762;2024-03-23T04:09:03;97305.66;;;7.55;100.00
17505;BME280;8870;50.950;11.762;2024-03-23T04:14:32;97308.84;;;7.51;100.00
17505;BME280;8870;50.950;11.762;2024-03-23T04:19:48;97326.28;;;7.55;100.00
17505;BME280;8870;50.950;11.762;2024-03-23T04:25:17;97272.69;;;7.55;100.00
17505;BME280;8870;50.950;11.762;2024-03-23T04:30:31;97250.25;;;7.48;100.00
17505;BME280;8870;50.950;11.762;2024-03-23T04:36:03;97248.94;;;7.44;100.00
17505;BME280;8870;50.950;11.762;2024-03-23T04:41:18;97247.41;;;7.41;100.00
17505;BME280;8870;50.950;11.762;2024-03-23T04:46:47;97255.28;;;7.43;100.00
17505;BME280;8870;50.950;11.762;2024-03-23T04:52:04;97233.00;;;7.42;100.00
17505;BME280;8870;50.950;11.762;2024-03-23T04:57:33;97251.75;;;7.42;100.00
17505;BME280;8870;50.950;11.762;2024-03-23T05:02:47;97223.13;;;7.43;100.00
17505;BME280;8870;50.950;11.762;2024-03-23T05:08:17;97190.31;;;7.40;100.00
17505;BME280;8870;50.950;11.762;2024-03-23T05:13:32;97181.59;;;7.38;100.00
17505;BME280;8870;50.950;11.762;2024-03-23T05:19:00;97198.69;;;7.37;100.00
17505;BME280;8870;50.950;11.762;2024-03-23T05:24:17;97185.97;;;7.39;100.00
17505;BME280;8870;50.950;11.762;2024-03-23T05:29:46;97182.28;;;7.40;100.00
17505;BME280;8870;50.950;11.762;2024-03-23T05:35:01;97175.72;;;7.43;100.00
17505;BME280;8870;50.950;11.762;2024-03-23T05:40:32;97148.41;;;7.48;100.00
17505;BME280;8870;50.950;11.762;2024-03-23T05:45:53;97158.78;;;7.51;100.00
17505;BME280;8870;50.950;11.762;2024-03-23T05:51:21;97133.00;;;7.58;100.00
17505;BME280;8870;50.950;11.762;2024-03-23T05:56:37;97119.22;;;7.61;100.00
17505;BME280;8870;50.950;11.762;2024-03-23T06:02:06;97106.13;;;7.66;100.00
17505;BME280;8870;50.950;11.762;2024-03-23T06:07:34;97109.97;;;7.72;100.00
17505;BME280;8870;50.950;11.762;2024-03-23T06:12:50;97098.91;;;7.75;100.00
17505;BME280;8870;50.950;11.762;2024-03-23T06:18:19;97079.75;;;7.78;100.00
17505;BME280;8870;50.950;11.762;2024-03-23T06:23:33;97088.31;;;7.82;100.00
17505;BME280;8870;50.950;11.762;2024-03-23T06:29:03;97079.34;;;7.90;100.00
17505;BME280;8870;50.950;11.762;2024-03-23T06:34:19;97067.47;;;7.92;100.00
17505;BME280;8870;50.950;11.762;2024-03-23T06:39:47;97052.31;;;7.99;100.00
17505;BME280;8870;50.950;11.762;2024-03-23T06:45:06;97050.09;;;8.03;100.00
17505;BME280;8870;50.950;11.762;2024-03-23T06:50:34;97042.53;;;8.07;100.00
17505;BME280;8870;50.950;11.762;2024-03-23T06:55:56;97032.22;;;8.18;100.00
17505;BME280;8870;50.950;11.762;2024-03-23T07:01:26;97026.78;;;8.27;100.00
17505;BME280;8870;50.950;11.762;2024-03-23T07:06:44;97027.84;;;8.41;100.00
17505;BME280;8870;50.950;11.762;2024-03-23T07:12:12;97037.53;;;8.65;100.00
17505;BME280;8870;50.950;11.762;2024-03-23T07:17:29;97048.00;;;8.75;100.00
17505;BME280;8870;50.950;11.762;2024-03-23T07:22:57;97054.00;;;8.77;100.00
17505;BME280;8870;50.950;11.762;2024-03-23T07:28:12;97120.56;;;8.67;100.00
17505;BME280;8870;50.950;11.762;2024-03-23T07:33:47;97094.28;;;7.92;100.00
17505;BME280;8870;50.950;11.762;2024-03-23T07:39:02;97130.00;;;6.88;100.00
17505;BME280;8870;50.950;11.762;2024-03-23T07:44:31;97121.75;;;5.91;100.00
17505;BME280;8870;50.950;11.762;2024-03-23T07:49:48;97145.31;;;5.09;100.00
17505;BME280;8870;50.950;11.762;2024-03-23T07:55:16;97190.19;;;4.61;100.00
17505;BME280;8870;50.950;11.762;2024-03-23T08:00:30;97277.47;;;4.23;100.00
17505;BME280;8870;50.950;11.762;2024-03-23T08:06:06;97320.91;;;4.06;100.00
17505;BME280;8870;50.950;11.762;2024-03-23T08:11:21;97380.56;;;3.95;100.00
17505;BME280;8870;50.950;11.762;2024-03-23T08:16:49;97394.06;;;3.83;100.00
17505;BME280;8870;50.950;11.762;2024-03-23T08:22:06;97418.19;;;3.72;100.00
17505;BME280;8870;50.950;11.762;2024-03-23T08:27:34;97429.72;;;3.63;100.00
17505;BME280;8870;50.950;11.762;2024-03-23T08:32:56;97433.34;;;3.52;100.00
17505;BME280;8870;50.950;11.762;2024-03-23T08:38:27;97406.00;;;3.50;100.00
17505;BME280;8870;50.950;11.762;2024-03-23T08:43:42;97430.25;;;3.57;100.00
17505;BME280;8870;50.950;11.762;2024-03-23T08:49:11;97469.94;;;3.60;100.00
17505;BME280;8870;50.950;11.762;2024-03-23T08:54:29;97492.78;;;3.43;100.00
17505;BME280;8870;50.950;11.762;2024-03-23T08:59:57;97522.75;;;3.35;100.00
17505;BME280;8870;50.950;11.762;2024-03-23T09:05:11;97538.03;;;3.23;100.00
17505;BME280;8870;50.950;11.762;2024-03-23T09:10:42;97536.34;;;3.22;100.00
17505;BME280;8870;50.950;11.762;2024-03-23T09:15:57;97552.97;;;3.24;100.00
17505;BME280;8870;50.950;11.762;2024-03-23T09:21:25;97550.50;;;3.32;100.00
17505;BME280;8870;50.950;11.762;2024-03-23T09:26:41;97580.63;;;3.33;100.00
17505;BME280;8870;50.950;11.762;2024-03-23T09:32:10;97602.59;;;3.25;100.00
17505;BME280;8870;50.950;11.762;2024-03-23T09:37:24;97616.88;;;3.24;100.00
17505;BME280;8870;50.950;11.762;2024-03-23T09:42:55;97646.84;;;3.16;100.00
17505;BME280;8870;50.950;11.762;2024-03-23T09:48:09;97621.88;;;3.07;100.00
17505;BME280;8870;50.950;11.762;2024-03-23T09:53:38;97635.16;;;3.07;100.00
17505;BME280;8870;50.950;11.762;2024-03-23T09:59:02;97674.53;;;3.14;100.00
17505;BME280;8870;50.950;11.762;2024-03-23T10:04:37;97680.84;;;3.13;100.00
17505;BME280;8870;50.950;11.762;2024-03-23T10:09:52;97698.38;;;3.15;100.00
17505;BME280;8870;50.950;11.762;2024-03-23T10:15:24;97711.03;;;3.23;100.00
17505;BME280;8870;50.950;11.762;2024-03-23T10:20:39;97720.16;;;3.30;100.00
17505;BME280;8870;50.950;11.762;2024-03-23T10:26:15;97725.22;;;3.33;100.00
17505;BME280;8870;50.950;11.762;2024-03-23T10:31:39;97735.59;;;3.36;100.00
17505;BME280;8870;50.950;11.762;2024-03-23T10:37:08;97733.53;;;3.40;100.00
17505;BME280;8870;50.950;11.762;2024-03-23T10:42:23;97734.38;;;3.41;100.00
17505;BME280;8870;50.950;11.762;2024-03-23T10:47:53;97740.72;;;3.49;100.00
17505;BME280;8870;50.950;11.762;2024-03-23T10:53:08;97728.59;;;3.66;100.00
17505;BME280;8870;50.950;11.762;2024-03-23T10:58:38;97736.38;;;3.89;100.00
17505;BME280;8870;50.950;11.762;2024-03-23T11:03:56;97754.50;;;4.05;100.00
17505;BME280;8870;50.950;11.762;2024-03-23T11:09:39;97764.97;;;4.38;100.00
17505;BME280;8870;50.950;11.762;2024-03-23T11:14:55;97749.41;;;4.62;100.00
17505;BME280;8870;50.950;11.762;2024-03-23T11:20:32;97751.22;;;4.72;100.00
17505;BME280;8870;50.950;11.762;2024-03-23T11:25:47;97755.56;;;4.92;100.00
17505;BME280;8870;50.950;11.762;2024-03-23T11:31:15;97742.00;;;5.23;100.00
17505;BME280;8870;50.950;11.762;2024-03-23T11:36:33;97731.13;;;5.45;100.00
17505;BME280;8870;50.950;11.762;2024-03-23T11:42:01;97713.53;;;5.80;100.00
17505;BME280;8870;50.950;11.762;2024-03-23T11:47:15;97700.72;;;6.11;100.00
17505;BME280;8870;50.950;11.762;2024-03-23T11:52:46;97665.91;;;6.21;100.00
17505;BME280;8870;50.950;11.762;2024-03-23T11:58:01;97648.72;;;6.24;100.00
17505;BME280;8870;50.950;11.762;2024-03-23T12:03:30;97628.69;;;6.10;100.00
17505;BME280;8870;50.950;11.762;2024-03-23T12:08:49;97601.09;;;6.09;100.00
17505;BME280;8870;50.950;11.762;2024-03-23T12:14:17;97601.38;;;6.42;100.00
17505;BME280;8870;50.950;11.762;2024-03-23T12:19:31;97603.63;;;6.73;100.00
17505;BME280;8870;50.950;11.762;2024-03-23T12:25:02;97591.22;;;6.99;100.00
17505;BME280;8870;50.950;11.762;2024-03-23T12:30:23;97585.91;;;6.81;100.00
17505;BME280;8870;50.950;11.762;2024-03-23T12:35:51;97579.84;;;6.70;100.00
17505;BME280;8870;50.950;11.762;2024-03-23T12:41:09;97563.88;;;6.60;100.00
17505;BME280;8870;50.950;11.762;2024-03-23T12:46:38;97568.66;;;6.75;100.00
17505;BME280;8870;50.950;11.762;2024-03-23T12:51:56;97571.41;;;7.26;100.00
17505;BME280;8870;50.950;11.762;2024-03-23T12:57:26;97554.91;;;7.47;100.00
17505;BME280;8870;50.950;11.762;2024-03-23T13:02:41;97544.03;;;7.49;100.00
17505;BME280;8870;50.950;11.762;2024-03-23T13:08:09;97545.91;;;7.65;100.00
17505;BME280;8870;50.950;11.762;2024-03-23T13:13:26;97540.41;;;7.66;100.00
17505;BME280;8870;50.950;11.762;2024-03-23T13:18:54;97546.75;;;7.74;100.00
17505;BME280;8870;50.950;11.762;2024-03-23T13:24:08;97526.34;;;7.81;100.00
17505;BME280;8870;50.950;11.762;2024-03-23T13:29:39;97531.88;;;7.88;100.00
17505;BME280;8870;50.950;11.762;2024-03-23T13:34:54;97529.34;;;7.86;100.00
17505;BME280;8870;50.950;11.762;2024-03-23T13:40:22;97527.69;;;8.18;100.00
17505;BME280;8870;50.950;11.762;2024-03-23T13:45:39;97532.38;;;8.41;100.00
17505;BME280;8870;50.950;11.762;2024-03-23T13:51:07;97536.41;;;8.12;100.00
17505;BME280;8870;50.950;11.762;2024-03-23T13:56:21;97523.63;;;7.72;100.00
17505;BME280;8870;50.950;11.762;2024-03-23T14:01:52;97507.56;;;7.97;100.00
17505;BME280;8870;50.950;11.762;2024-03-23T14:07:06;97505.84;;;8.46;100.00
17505;BME280;8870;50.950;11.762;2024-03-23T14:12:34;97490.31;;;8.89;100.00
17505;BME280;8870;50.950;11.762;2024-03-23T14:17:52;97504.84;;;9.12;100.00
17505;BME280;8870;50.950;11.762;2024-03-23T14:23:20;97475.88;;;8.99;100.00
17505;BME280;8870;50.950;11.762;2024-03-23T14:28:34;97464.09;;;9.31;100.00
17505;BME280;8870;50.950;11.762;2024-03-23T14:34:05;97468.03;;;9.20;100.00
17505;BME280;8870;50.950;11.762;2024-03-23T14:39:22;97465.66;;;8.86;100.00
17505;BME280;8870;50.950;11.762;2024-03-23T14:44:52;97472.47;;;8.40;100.00
17505;BME280;8870;50.950;11.762;2024-03-23T14:50:09;97543.44;;;7.80;100.00
17505;BME280;8870;50.950;11.762;2024-03-23T14:55:37;97603.66;;;5.09;100.00
17505;BME280;8870;50.950;11.762;2024-03-23T15:00:51;97575.91;;;3.95;100.00
17505;BME280;8870;50.950;11.762;2024-03-23T15:06:21;97566.66;;;3.90;100.00
17505;BME280;8870;50.950;11.762;2024-03-23T15:11:36;97568.09;;;4.04;100.00
17505;BME280;8870;50.950;11.762;2024-03-23T15:17:04;97581.88;;;4.56;100.00
17505;BME280;8870;50.950;11.762;2024-03-23T15:22:22;97594.25;;;5.05;100.00
17505;BME280;8870;50.950;11.762;2024-03-23T15:27:50;97600.41;;;5.43;100.00
17505;BME280;8870;50.950;11.762;2024-03-23T15:33:11;97580.53;;;5.74;100.00
17505;BME280;8870;50.950;11.762;2024-03-23T15:38:42;97570.75;;;6.00;100.00
17505;BME280;8870;50.950;11.762;2024-03-23T15:43:57;97557.38;;;6.19;100.00
17505;BME280;8870;50.950;11.762;2024-03-23T15:49:25;97550.91;;;6.47;100.00
17505;BME280;8870;50.950;11.762;2024-03-23T15:54:46;97551.03;;;6.64;100.00
17505;BME280;8870;50.950;11.762;2024-03-23T16:00:15;97534.31;;;6.70;100.00
17505;BME280;8870;50.950;11.762;2024-03-23T16:05:29;97546.19;;;6.68;100.00
17505;BME280;8870;50.950;11.762;2024-03-23T16:11:03;97530.28;;;6.66;100.00
17505;BME280;8870;50.950;11.762;2024-03-23T16:16:18;97525.41;;;6.88;100.00
17505;BME280;8870;50.950;11.762;2024-03-23T16:21:46;97531.34;;;6.73;100.00
17505;BME280;8870;50.950;11.762;2024-03-23T16:27:03;97512.00;;;6.53;100.00
17505;BME280;8870;50.950;11.762;2024-03-23T16:32:32;97499.53;;;6.17;100.00
17505;BME280;8870;50.950;11.762;2024-03-23T16:38:00;97501.31;;;5.91;100.00
17505;BME280;8870;50.950;11.762;2024-03-23T16:43:31;97508.59;;;5.80;100.00
17505;BME280;8870;50.950;11.762;2024-03-23T16:48:45;97496.59;;;5.66;100.00
17505;BME280;8870;50.950;11.762;2024-03-23T16:54:13;97512.63;;;5.48;100.00
17505;BME280;8870;50.950;11.762;2024-03-23T16:59:30;97520.03;;;5.54;100.00
17505;BME280;8870;50.950;11.762;2024-03-23T17:04:59;97526.91;;;5.57;100.00
17505;BME280;8870;50.950;11.762;2024-03-23T17:10:13;97528.59;;;5.58;100.00
17505;BME280;8870;50.950;11.762;2024-03-23T17:15:47;97536.53;;;5.50;100.00
17505;BME280;8870;50.950;11.762;2024-03-23T17:21:01;97544.22;;;5.35;100.00
17505;BME280;8870;50.950;11.762;2024-03-23T17:26:29;97536.78;;;5.01;100.00
17505;BME280;8870;50.950;11.762;2024-03-23T17:31:53;97525.50;;;4.79;100.00
17505;BME280;8870;50.950;11.762;2024-03-23T17:37:21;97536.09;;;4.61;100.00
17505;BME280;8870;50.950;11.762;2024-03-23T17:42:38;97527.72;;;4.46;100.00
17505;BME280;8870;50.950;11.762;2024-03-23T17:48:09;97532.81;;;4.29;100.00
17505;BME280;8870;50.950;11.762;2024-03-23T17:53:23;97542.38;;;4.12;100.00
17505;BME280;8870;50.950;11.762;2024-03-23T17:58:51;97536.53;;;3.99;100.00
17505;BME280;8870;50.950;11.762;2024-03-23T18:04:09;97551.53;;;3.90;100.00
17505;BME280;8870;50.950;11.762;2024-03-23T18:09:37;97541.41;;;3.84;100.00
17505;BME280;8870;50.950;11.762;2024-03-23T18:14:51;97547.03;;;3.71;100.00
17505;BME280;8870;50.950;11.762;2024-03-23T18:20:22;97556.56;;;3.54;100.00
17505;BME280;8870;50.950;11.762;2024-03-23T18:25:36;97561.44;;;3.39;100.00
17505;BME280;8870;50.950;11.762;2024-03-23T18:31:04;97559.72;;;3.28;100.00
17505;BME280;8870;50.950;11.762;2024-03-23T18:36:35;97565.88;;;3.19;100.00
17505;BME280;8870;50.950;11.762;2024-03-23T18:41:50;97578.47;;;3.17;100.00
17505;BME280;8870;50.950;11.762;2024-03-23T18:47:18;97573.56;;;3.12;100.00
17505;BME280;8870;50.950;11.762;2024-03-23T18:52:35;97576.78;;;3.16;100.00
17505;BME280;8870;50.950;11.762;2024-03-23T18:58:03;97574.13;;;3.16;100.00
17505;BME280;8870;50.950;11.762;2024-03-23T19:03:18;97569.50;;;3.18;100.00
17505;BME280;8870;50.950;11.762;2024-03-23T19:08:49;97567.41;;;3.21;100.00
17505;BME280;8870;50.950;11.762;2024-03-23T19:14:03;97561.97;;;3.23;100.00
17505;BME280;8870;50.950;11.762;2024-03-23T19:19:31;97568.38;;;3.20;100.00
17505;BME280;8870;50.950;11.762;2024-03-23T19:24:49;97568.09;;;3.14;100.00
17505;BME280;8870;50.950;11.762;2024-03-23T19:30:17;97572.44;;;3.15;100.00
17505;BME280;8870;50.950;11.762;2024-03-23T19:35:32;97564.75;;;3.12;100.00
17505;BME280;8870;50.950;11.762;2024-03-23T19:41:03;97563.31;;;3.07;100.00
17505;BME280;8870;50.950;11.762;2024-03-23T19:46:17;97570.84;;;3.02;100.00
17505;BME280;8870;50.950;11.762;2024-03-23T19:51:45;97563.72;;;3.03;100.00
17505;BME280;8870;50.950;11.762;2024-03-23T19:57:02;97560.88;;;2.95;100.00
17505;BME280;8870;50.950;11.762;2024-03-23T20:02:30;97562.81;;;2.83;100.00
17505;BME280;8870;50.950;11.762;2024-03-23T20:07:44;97556.59;;;2.72;100.00
17505;BME280;8870;50.950;11.762;2024-03-23T20:13:15;97552.91;;;2.64;100.00
17505;BME280;8870;50.950;11.762;2024-03-23T20:18:30;97557.81;;;2.58;100.00
17505;BME280;8870;50.950;11.762;2024-03-23T20:23:58;97553.88;;;2.53;100.00
17505;BME280;8870;50.950;11.762;2024-03-23T20:29:16;97564.34;;;2.54;100.00
17505;BME280;8870;50.950;11.762;2024-03-23T20:34:44;97574.28;;;2.52;100.00
17505;BME280;8870;50.950;11.762;2024-03-23T20:39:59;97572.59;;;2.51;100.00
17505;BME280;8870;50.950;11.762;2024-03-23T20:45:30;97582.66;;;2.47;100.00
17505;BME280;8870;50.950;11.762;2024-03-23T20:50:44;97588.22;;;2.44;100.00
17505;BME280;8870;50.950;11.762;2024-03-23T20:56:12;97593.53;;;2.44;100.00
17505;BME280;8870;50.950;11.762;2024-03-23T21:01:29;97601.13;;;2.49;100.00
17505;BME280;8870;50.950;11.762;2024-03-23T21:06:58;97591.09;;;2.53;100.00
17505;BME280;8870;50.950;11.762;2024-03-23T21:12:12;97605.06;;;2.55;100.00
17505;BME280;8870;50.950;11.762;2024-03-23T21:17:43;97602.28;;;2.56;100.00
17505;BME280;8870;50.950;11.762;2024-03-23T21:22:57;97607.47;;;2.58;100.00
17505;BME280;8870;50.950;11.762;2024-03-23T21:28:25;97603.13;;;2.57;100.00
17505;BME280;8870;50.950;11.762;2024-03-23T21:33:50;97601.19;;;2.59;100.00
17505;BME280;8870;50.950;11.762;2024-03-23T21:39:18;97598.53;;;2.59;100.00
17505;BME280;8870;50.950;11.762;2024-03-23T21:44:32;97595.28;;;2.55;100.00
17505;BME280;8870;50.950;11.762;2024-03-23T21:50:03;97594.00;;;2.50;100.00
17505;BME280;8870;50.950;11.762;2024-03-23T21:55:18;97590.03;;;2.44;100.00
17505;BME280;8870;50.950;11.762;2024-03-23T22:00:46;97578.13;;;2.38;100.00
17505;BME280;8870;50.950;11.762;2024-03-23T22:06:03;97579.66;;;2.41;100.00
17505;BME280;8870;50.950;11.762;2024-03-23T22:11:32;97582.38;;;2.51;100.00
17505;BME280;8870;50.950;11.762;2024-03-23T22:16:47;97592.16;;;2.71;100.00
17505;BME280;8870;50.950;11.762;2024-03-23T22:22:18;97591.47;;;3.10;100.00
17505;BME280;8870;50.950;11.762;2024-03-23T22:27:32;97575.66;;;3.08;100.00
17505;BME280;8870;50.950;11.762;2024-03-23T22:33:00;97563.84;;;3.01;100.00
17505;BME280;8870;50.950;11.762;2024-03-23T22:38:17;97568.03;;;2.94;100.00
17505;BME280;8870;50.950;11.762;2024-03-23T22:43:45;97561.56;;;2.87;100.00
17505;BME280;8870;50.950;11.762;2024-03-23T22:48:59;97564.91;;;2.89;100.00
17505;BME280;8870;50.950;11.762;2024-03-23T22:54:30;97555.84;;;2.91;100.00
17505;BME280;8870;50.950;11.762;2024-03-23T22:59:44;97548.69;;;2.82;100.00
17505;BME280;8870;50.950;11.762;2024-03-23T23:05:12;97527.50;;;2.81;100.00
17505;BME280;8870;50.950;11.762;2024-03-23T23:10:30;97524.44;;;2.75;100.00
17505;BME280;8870;50.950;11.762;2024-03-23T23:15:58;97526.09;;;2.76;100.00
17505;BME280;8870;50.950;11.762;2024-03-23T23:21:12;97513.06;;;2.73;100.00
17505;BME280;8870;50.950;11.762;2024-03-23T23:26:43;97504.81;;;2.76;100.00
17505;BME280;8870;50.950;11.762;2024-03-23T23:32:05;97500.19;;;2.78;100.00
17505;BME280;8870;50.950;11.762;2024-03-23T23:37:33;97499.38;;;2.78;100.00
17505;BME280;8870;50.950;11.762;2024-03-23T23:42:51;97499.69;;;2.95;100.00
17505;BME280;8870;50.950;11.762;2024-03-23T23:48:19;97494.66;;;3.01;100.00
17505;BME280;8870;50.950;11.762;2024-03-23T23:53:34;97497.72;;;2.97;100.00
17505;BME280;8870;50.950;11.762;2024-03-23T23:59:05;97493.56;;;3.04;100.00
